sensor_id;sensor_type;location;lat;lon;timestamp;pressure;altitude;pressure_sealevel;temperature;humidity
63556;BME280;49700;48.072;7.800;2023-02-28T08:01:46;100135.69;;;1.85;54.55
63556;BME280;49700;48.072;7.800;2023-02-28T08:04:11;100132.16;;;1.89;54.65
63556;BME280;49700;48.072;7.800;2023-02-28T08:06:37;100122.50;;;1.96;54.32
63556;BME280;49700;48.072;7.800;2023-02-28T08:09:02;100124.88;;;2.07;54.33
63556;BME280;49700;48.072;7.800;2023-02-28T08:11:28;100130.75;;;2.16;53.88
63556;BME280;49700;48.072;7.800;2023-02-28T08:13:54;100124.66;;;2.19;53.97
63556;BME280;49700;48.072;7.800;2023-02-28T08:16:20;100129.16;;;2.09;54.48
63556;BME280;49700;48.072;7.800;2023-02-28T08:18:50;100133.41;;;2.12;54.53
63556;BME280;49700;48.072;7.800;2023-02-28T08:21:16;100128.88;;;2.23;54.42
63556;BME280;49700;48.072;7.800;2023-02-28T08:23:41;100134.59;;;2.37;54.21
63556;BME280;49700;48.072;7.800;2023-02-28T08:26:07;100130.84;;;2.51;54.24
63556;BME280;49700;48.072;7.800;2023-02-28T08:28:32;100134.09;;;2.62;54.04
63556;BME280;49700;48.072;7.800;2023-02-28T08:30:58;100138.06;;;2.77;53.44
63556;BME280;49700;48.072;7.800;2023-02-28T08:33:24;100133.63;;;2.82;53.80
63556;BME280;49700;48.072;7.800;2023-02-28T08:35:54;100141.22;;;2.90;53.60
63556;BME280;49700;48.072;7.800;2023-02-28T08:38:20;100141.84;;;2.99;53.67
63556;BME280;49700;48.072;7.800;2023-02-28T08:40:45;100135.66;;;3.39;52.37
63556;BME280;49700;48.072;7.800;2023-02-28T08:43:10;100135.84;;;3.97;51.45
63556;BME280;49700;48.072;7.800;2023-02-28T08:45:36;100134.66;;;4.09;49.93
63556;BME280;49700;48.072;7.800;2023-02-28T08:48:01;100145.47;;;3.93;50.07
63556;BME280;49700;48.072;7.800;2023-02-28T08:50:27;100139.50;;;3.90;49.78
63556;BME280;49700;48.072;7.800;2023-02-28T08:52:52;100142.03;;;3.93;49.80
63556;BME280;49700;48.072;7.800;2023-02-28T08:55:17;100144.59;;;3.94;50.24
63556;BME280;49700;48.072;7.800;2023-02-28T08:57:43;100144.94;;;3.81;50.51
63556;BME280;49700;48.072;7.800;2023-02-28T09:00:09;100136.75;;;3.63;50.65
63556;BME280;49700;48.072;7.800;2023-02-28T09:02:35;100143.88;;;3.57;50.72
63556;BME280;49700;48.072;7.800;2023-02-28T09:05:00;100151.03;;;3.48;51.15
63556;BME280;49700;48.072;7.800;2023-02-28T09:07:26;100149.34;;;3.46;51.15
63556;BME280;49700;48.072;7.800;2023-02-28T09:09:51;100144.44;;;3.35;51.39
63556;BME280;49700;48.072;7.800;2023-02-28T09:12:22;100145.00;;;3.46;50.76
63556;BME280;49700;48.072;7.800;2023-02-28T09:14:48;100141.56;;;3.46;50.98
63556;BME280;49700;48.072;7.800;2023-02-28T09:17:14;100141.34;;;3.53;50.79
63556;BME280;49700;48.072;7.800;2023-02-28T09:19:40;100141.66;;;3.75;50.63
63556;BME280;49700;48.072;7.800;2023-02-28T09:22:05;100138.94;;;4.10;49.33
63556;BME280;49700;48.072;7.800;2023-02-28T09:24:31;100133.41;;;4.50;48.05
63556;BME280;49700;48.072;7.800;2023-02-28T09:26:56;100132.44;;;4.54;47.74
63556;BME280;49700;48.072;7.800;2023-02-28T09:29:22;100133.72;;;4.41;47.98
63556;BME280;49700;48.072;7.800;2023-02-28T09:31:47;100135.56;;;4.65;47.39
63556;BME280;49700;48.072;7.800;2023-02-28T09:34:13;100136.69;;;5.12;46.56
63556;BME280;49700;48.072;7.800;2023-02-28T09:36:38;100139.38;;;5.62;45.71
63556;BME280;49700;48.072;7.800;2023-02-28T09:39:04;100141.22;;;5.58;44.97
63556;BME280;49700;48.072;7.800;2023-02-28T09:41:40;100138.38;;;5.39;44.85
63556;BME280;49700;48.072;7.800;2023-02-28T09:44:37;100148.81;;;5.13;45.19
63556;BME280;49700;48.072;7.800;2023-02-28T09:47:12;100148.63;;;4.92;45.54
63556;BME280;49700;48.072;7.800;2023-02-28T09:49:42;100152.97;;;4.63;45.99
63556;BME280;49700;48.072;7.800;2023-02-28T09:52:14;100145.16;;;4.35;46.46
63556;BME280;49700;48.072;7.800;2023-02-28T09:54:41;100151.53;;;4.24;47.12
63556;BME280;49700;48.072;7.800;2023-02-28T09:59:44;100142.03;;;4.22;47.26
63556;BME280;49700;48.072;7.800;2023-02-28T10:05:19;100138.63;;;4.20;47.43
63556;BME280;49700;48.072;7.800;2023-02-28T10:08:09;100133.00;;;4.06;47.56
63556;BME280;49700;48.072;7.800;2023-02-28T10:10:51;100137.19;;;4.10;47.53
63556;BME280;49700;48.072;7.800;2023-02-28T10:13:34;100136.44;;;4.07;47.73
63556;BME280;49700;48.072;7.800;2023-02-28T10:16:08;100144.34;;;4.02;47.88
63556;BME280;49700;48.072;7.800;2023-02-28T10:18:43;100149.31;;;4.11;47.97
63556;BME280;49700;48.072;7.800;2023-02-28T10:21:52;100146.72;;;4.11;47.88
63556;BME280;49700;48.072;7.800;2023-02-28T10:24:44;100143.19;;;4.12;47.51
63556;BME280;49700;48.072;7.800;2023-02-28T10:27:13;100152.25;;;3.99;47.97
63556;BME280;49700;48.072;7.800;2023-02-28T10:29:45;100147.78;;;4.04;47.82
63556;BME280;49700;48.072;7.800;2023-02-28T10:32:17;100159.75;;;4.10;47.72
63556;BME280;49700;48.072;7.800;2023-02-28T10:34:52;100158.16;;;4.04;47.87
63556;BME280;49700;48.072;7.800;2023-02-28T10:37:20;100151.59;;;3.91;48.21
63556;BME280;49700;48.072;7.800;2023-02-28T10:39:46;100165.38;;;3.94;48.01
63556;BME280;49700;48.072;7.800;2023-02-28T10:42:27;100160.72;;;4.06;47.84
63556;BME280;49700;48.072;7.800;2023-02-28T10:45:17;100150.16;;;4.12;47.85
63556;BME280;49700;48.072;7.800;2023-02-28T10:50:39;100167.75;;;4.02;47.36
63556;BME280;49700;48.072;7.800;2023-02-28T10:55:36;100170.13;;;4.10;47.29
63556;BME280;49700;48.072;7.800;2023-02-28T10:58:02;100171.25;;;4.01;47.38
63556;BME280;49700;48.072;7.800;2023-02-28T11:00:32;100173.13;;;3.96;47.51
63556;BME280;49700;48.072;7.800;2023-02-28T11:03:01;100177.25;;;4.03;47.27
63556;BME280;49700;48.072;7.800;2023-02-28T11:05:32;100171.81;;;4.12;47.54
63556;BME280;49700;48.072;7.800;2023-02-28T11:08:20;100170.84;;;4.15;47.58
63556;BME280;49700;48.072;7.800;2023-02-28T11:11:03;100166.50;;;4.15;47.68
63556;BME280;49700;48.072;7.800;2023-02-28T11:13:33;100168.97;;;4.21;47.74
63556;BME280;49700;48.072;7.800;2023-02-28T11:16:03;100166.06;;;4.31;47.57
63556;BME280;49700;48.072;7.800;2023-02-28T11:18:50;100167.53;;;4.41;47.72
63556;BME280;49700;48.072;7.800;2023-02-28T11:21:23;100172.59;;;4.46;47.36
63556;BME280;49700;48.072;7.800;2023-02-28T11:23:53;100175.13;;;4.47;47.25
63556;BME280;49700;48.072;7.800;2023-02-28T11:26:43;100162.19;;;4.46;47.63
63556;BME280;49700;48.072;7.800;2023-02-28T11:29:32;100172.03;;;4.34;47.72
63556;BME280;49700;48.072;7.800;2023-02-28T11:32:02;100170.88;;;4.44;47.65
63556;BME280;49700;48.072;7.800;2023-02-28T11:34:29;100168.81;;;4.56;47.34
63556;BME280;49700;48.072;7.800;2023-02-28T11:36:57;100174.09;;;4.53;47.16
63556;BME280;49700;48.072;7.800;2023-02-28T11:39:25;100165.34;;;4.55;46.96
63556;BME280;49700;48.072;7.800;2023-02-28T11:41:57;100165.16;;;4.61;46.88
63556;BME280;49700;48.072;7.800;2023-02-28T11:47:32;100155.03;;;4.80;46.89
63556;BME280;49700;48.072;7.800;2023-02-28T11:50:26;100167.81;;;4.88;46.13
63556;BME280;49700;48.072;7.800;2023-02-28T11:52:59;100168.03;;;4.82;46.14
63556;BME280;49700;48.072;7.800;2023-02-28T11:55:27;100166.16;;;4.57;46.45
63556;BME280;49700;48.072;7.800;2023-02-28T12:01:03;100157.13;;;4.69;46.84
63556;BME280;49700;48.072;7.800;2023-02-28T12:11:34;100159.19;;;4.86;46.34
63556;BME280;49700;48.072;7.800;2023-02-28T12:22:31;100147.69;;;4.93;46.29
63556;BME280;49700;48.072;7.800;2023-02-28T12:27:36;100142.13;;;5.05;46.21
63556;BME280;49700;48.072;7.800;2023-02-28T12:30:05;100144.19;;;5.21;46.34
63556;BME280;49700;48.072;7.800;2023-02-28T12:32:45;100146.31;;;5.36;45.87
63556;BME280;49700;48.072;7.800;2023-02-28T12:35:16;100151.19;;;5.45;45.86
63556;BME280;49700;48.072;7.800;2023-02-28T12:37:48;100141.56;;;5.47;45.64
63556;BME280;49700;48.072;7.800;2023-02-28T12:40:22;100138.25;;;5.44;45.56
63556;BME280;49700;48.072;7.800;2023-02-28T12:42:52;100132.31;;;5.39;45.59
63556;BME280;49700;48.072;7.800;2023-02-28T12:45:25;100133.31;;;5.35;45.72
63556;BME280;49700;48.072;7.800;2023-02-28T12:47:58;100137.09;;;5.26;45.61
63556;BME280;49700;48.072;7.800;2023-02-28T12:50:25;100139.59;;;5.29;45.54
63556;BME280;49700;48.072;7.800;2023-02-28T12:52:59;100134.19;;;5.35;45.85
63556;BME280;49700;48.072;7.800;2023-02-28T12:55:36;100127.59;;;5.25;46.11
63556;BME280;49700;48.072;7.800;2023-02-28T12:58:35;100129.53;;;5.18;45.95
63556;BME280;49700;48.072;7.800;2023-02-28T13:06:58;100122.47;;;5.48;45.22
63556;BME280;49700;48.072;7.800;2023-02-28T13:09:29;100130.94;;;5.53;45.43
63556;BME280;49700;48.072;7.800;2023-02-28T13:11:55;100125.53;;;5.60;45.17
63556;BME280;49700;48.072;7.800;2023-02-28T13:19:57;100116.56;;;5.67;44.75
63556;BME280;49700;48.072;7.800;2023-02-28T13:27:59;100112.53;;;5.58;45.90
63556;BME280;49700;48.072;7.800;2023-02-28T13:33:29;100113.50;;;5.55;46.15
63556;BME280;49700;48.072;7.800;2023-02-28T13:36:23;100122.59;;;5.69;45.33
63556;BME280;49700;48.072;7.800;2023-02-28T13:39:00;100114.66;;;5.72;45.20
63556;BME280;49700;48.072;7.800;2023-02-28T13:46:29;100118.50;;;5.87;44.91
63556;BME280;49700;48.072;7.800;2023-02-28T13:48:54;100122.06;;;5.84;44.41
63556;BME280;49700;48.072;7.800;2023-02-28T13:51:39;100119.28;;;5.89;44.66
63556;BME280;49700;48.072;7.800;2023-02-28T13:54:32;100128.59;;;5.96;44.58
63556;BME280;49700;48.072;7.800;2023-02-28T14:02:50;100121.41;;;6.26;44.03
63556;BME280;49700;48.072;7.800;2023-02-28T14:05:20;100122.09;;;6.31;43.99
63556;BME280;49700;48.072;7.800;2023-02-28T14:07:56;100118.59;;;6.32;44.64
63556;BME280;49700;48.072;7.800;2023-02-28T14:10:28;100116.31;;;6.23;44.57
63556;BME280;49700;48.072;7.800;2023-02-28T14:18:25;100132.22;;;6.15;44.17
63556;BME280;49700;48.072;7.800;2023-02-28T14:21:16;100131.75;;;6.06;44.48
63556;BME280;49700;48.072;7.800;2023-02-28T14:26:55;100132.25;;;5.90;45.03
63556;BME280;49700;48.072;7.800;2023-02-28T14:29:54;100133.16;;;5.89;45.26
63556;BME280;49700;48.072;7.800;2023-02-28T14:32:37;100134.78;;;5.93;44.92
63556;BME280;49700;48.072;7.800;2023-02-28T14:35:29;100135.09;;;5.84;45.07
63556;BME280;49700;48.072;7.800;2023-02-28T14:38:05;100124.00;;;5.77;45.32
63556;BME280;49700;48.072;7.800;2023-02-28T14:40:33;100138.91;;;5.74;45.18
63556;BME280;49700;48.072;7.800;2023-02-28T14:43:03;100136.34;;;5.72;45.40
63556;BME280;49700;48.072;7.800;2023-02-28T14:45:31;100134.44;;;5.77;45.01
63556;BME280;49700;48.072;7.800;2023-02-28T14:47:57;100141.25;;;5.82;45.17
63556;BME280;49700;48.072;7.800;2023-02-28T14:50:35;100142.81;;;5.87;44.94
63556;BME280;49700;48.072;7.800;2023-02-28T14:53:01;100138.59;;;5.83;45.19
63556;BME280;49700;48.072;7.800;2023-02-28T14:55:34;100141.16;;;5.85;44.89
63556;BME280;49700;48.072;7.800;2023-02-28T14:58:05;100135.03;;;5.86;45.17
63556;BME280;49700;48.072;7.800;2023-02-28T15:00:33;100133.16;;;5.89;44.98
63556;BME280;49700;48.072;7.800;2023-02-28T15:03:11;100127.84;;;5.92;45.03
63556;BME280;49700;48.072;7.800;2023-02-28T15:05:51;100138.19;;;5.95;44.62
63556;BME280;49700;48.072;7.800;2023-02-28T15:08:17;100136.78;;;5.85;44.89
63556;BME280;49700;48.072;7.800;2023-02-28T15:10:52;100129.31;;;5.76;45.04
63556;BME280;49700;48.072;7.800;2023-02-28T15:13:19;100132.91;;;5.72;44.95
63556;BME280;49700;48.072;7.800;2023-02-28T15:16:00;100133.09;;;5.67;45.20
63556;BME280;49700;48.072;7.800;2023-02-28T15:21:14;100142.25;;;5.54;45.64
63556;BME280;49700;48.072;7.800;2023-02-28T15:23:43;100137.97;;;5.51;45.46
63556;BME280;49700;48.072;7.800;2023-02-28T15:26:15;100144.16;;;5.49;45.50
63556;BME280;49700;48.072;7.800;2023-02-28T15:28:43;100144.03;;;5.52;45.63
63556;BME280;49700;48.072;7.800;2023-02-28T15:31:26;100135.47;;;5.48;45.73
63556;BME280;49700;48.072;7.800;2023-02-28T15:33:55;100143.38;;;5.45;45.84
63556;BME280;49700;48.072;7.800;2023-02-28T15:36:24;100146.44;;;5.31;46.13
63556;BME280;49700;48.072;7.800;2023-02-28T15:38:51;100152.72;;;5.26;45.99
63556;BME280;49700;48.072;7.800;2023-02-28T15:41:26;100155.19;;;5.30;45.97
63556;BME280;49700;48.072;7.800;2023-02-28T15:44:15;100161.47;;;5.23;46.01
63556;BME280;49700;48.072;7.800;2023-02-28T15:47:02;100158.16;;;5.18;46.12
63556;BME280;49700;48.072;7.800;2023-02-28T15:49:53;100160.50;;;5.27;46.14
63556;BME280;49700;48.072;7.800;2023-02-28T15:52:28;100160.72;;;5.21;45.76
63556;BME280;49700;48.072;7.800;2023-02-28T15:54:57;100158.03;;;5.23;45.92
63556;BME280;49700;48.072;7.800;2023-02-28T15:57:30;100157.75;;;5.32;46.02
63556;BME280;49700;48.072;7.800;2023-02-28T15:59:58;100157.75;;;5.32;45.89
63556;BME280;49700;48.072;7.800;2023-02-28T16:02:35;100158.28;;;5.42;45.92
63556;BME280;49700;48.072;7.800;2023-02-28T16:07:38;100166.38;;;5.59;45.86
63556;BME280;49700;48.072;7.800;2023-02-28T16:10:05;100153.41;;;5.58;45.24
63556;BME280;49700;48.072;7.800;2023-02-28T16:12:33;100162.06;;;5.58;45.41
63556;BME280;49700;48.072;7.800;2023-02-28T16:15:02;100163.00;;;5.55;45.35
63556;BME280;49700;48.072;7.800;2023-02-28T16:17:35;100173.53;;;5.52;45.49
63556;BME280;49700;48.072;7.800;2023-02-28T16:20:11;100169.34;;;5.48;45.61
63556;BME280;49700;48.072;7.800;2023-02-28T16:22:37;100166.16;;;5.40;46.00
63556;BME280;49700;48.072;7.800;2023-02-28T16:25:03;100175.69;;;5.40;46.04
63556;BME280;49700;48.072;7.800;2023-02-28T16:27:31;100169.66;;;5.39;46.01
63556;BME280;49700;48.072;7.800;2023-02-28T16:29:58;100180.97;;;5.38;45.96
63556;BME280;49700;48.072;7.800;2023-02-28T16:32:23;100172.31;;;5.38;46.00
63556;BME280;49700;48.072;7.800;2023-02-28T16:34:49;100183.50;;;5.40;46.17
63556;BME280;49700;48.072;7.800;2023-02-28T16:37:16;100179.97;;;5.42;45.89
63556;BME280;49700;48.072;7.800;2023-02-28T16:39:43;100183.34;;;5.46;45.94
63556;BME280;49700;48.072;7.800;2023-02-28T16:42:21;100176.47;;;5.43;46.01
63556;BME280;49700;48.072;7.800;2023-02-28T16:44:48;100180.06;;;5.39;46.25
63556;BME280;49700;48.072;7.800;2023-02-28T16:47:14;100177.59;;;5.35;46.34
63556;BME280;49700;48.072;7.800;2023-02-28T16:49:40;100176.00;;;5.30;46.27
63556;BME280;49700;48.072;7.800;2023-02-28T16:52:08;100185.69;;;5.27;46.45
63556;BME280;49700;48.072;7.800;2023-02-28T16:54:39;100183.19;;;5.24;46.70
63556;BME280;49700;48.072;7.800;2023-02-28T16:57:05;100192.91;;;5.19;47.00
63556;BME280;49700;48.072;7.800;2023-02-28T16:59:33;100189.59;;;5.14;47.02
63556;BME280;49700;48.072;7.800;2023-02-28T17:01:59;100196.56;;;5.13;47.27
63556;BME280;49700;48.072;7.800;2023-02-28T17:04:25;100183.56;;;5.12;47.37
63556;BME280;49700;48.072;7.800;2023-02-28T17:06:54;100198.38;;;5.09;47.14
63556;BME280;49700;48.072;7.800;2023-02-28T17:09:22;100200.25;;;5.06;47.48
63556;BME280;49700;48.072;7.800;2023-02-28T17:11:48;100199.63;;;4.98;47.64
63556;BME280;49700;48.072;7.800;2023-02-28T17:14:15;100203.44;;;4.86;48.15
63556;BME280;49700;48.072;7.800;2023-02-28T17:16:41;100206.44;;;4.74;48.76
63556;BME280;49700;48.072;7.800;2023-02-28T17:19:13;100196.38;;;4.61;49.05
63556;BME280;49700;48.072;7.800;2023-02-28T17:21:40;100209.72;;;4.51;49.26
63556;BME280;49700;48.072;7.800;2023-02-28T17:24:07;100204.03;;;4.38;49.56
63556;BME280;49700;48.072;7.800;2023-02-28T17:26:32;100212.88;;;4.31;49.57
63556;BME280;49700;48.072;7.800;2023-02-28T17:28:58;100214.00;;;4.22;49.94
63556;BME280;49700;48.072;7.800;2023-02-28T17:31:24;100222.00;;;4.14;50.30
63556;BME280;49700;48.072;7.800;2023-02-28T17:33:50;100216.09;;;4.09;50.09
63556;BME280;49700;48.072;7.800;2023-02-28T17:36:21;100230.09;;;4.04;50.24
63556;BME280;49700;48.072;7.800;2023-02-28T17:38:47;100221.56;;;3.98;50.54
63556;BME280;49700;48.072;7.800;2023-02-28T17:41:13;100226.94;;;3.92;50.68
63556;BME280;49700;48.072;7.800;2023-02-28T17:43:39;100227.97;;;3.87;50.80
63556;BME280;49700;48.072;7.800;2023-02-28T17:46:04;100235.03;;;3.82;50.89
63556;BME280;49700;48.072;7.800;2023-02-28T17:48:31;100229.09;;;3.75;50.88
63556;BME280;49700;48.072;7.800;2023-02-28T17:50:57;100232.72;;;3.69;51.39
63556;BME280;49700;48.072;7.800;2023-02-28T17:53:23;100230.28;;;3.63;51.51
63556;BME280;49700;48.072;7.800;2023-02-28T17:55:51;100244.31;;;3.56;51.60
63556;BME280;49700;48.072;7.800;2023-02-28T17:58:17;100234.91;;;3.50;51.86
63556;BME280;49700;48.072;7.800;2023-02-28T18:00:44;100242.03;;;3.44;51.76
63556;BME280;49700;48.072;7.800;2023-02-28T18:03:09;100233.50;;;3.39;51.85
63556;BME280;49700;48.072;7.800;2023-02-28T18:05:36;100239.72;;;3.31;52.39
63556;BME280;49700;48.072;7.800;2023-02-28T18:08:02;100238.13;;;3.26;52.39
63556;BME280;49700;48.072;7.800;2023-02-28T18:10:27;100237.34;;;3.22;52.39
63556;BME280;49700;48.072;7.800;2023-02-28T18:12:53;100241.72;;;3.20;52.64
63556;BME280;49700;48.072;7.800;2023-02-28T18:15:20;100232.25;;;3.18;52.52
63556;BME280;49700;48.072;7.800;2023-02-28T18:17:48;100228.81;;;3.17;52.53
63556;BME280;49700;48.072;7.800;2023-02-28T18:20:14;100226.22;;;3.17;52.30
63556;BME280;49700;48.072;7.800;2023-02-28T18:22:41;100234.00;;;3.17;52.54
63556;BME280;49700;48.072;7.800;2023-02-28T18:25:09;100236.63;;;3.16;52.49
63556;BME280;49700;48.072;7.800;2023-02-28T18:27:38;100234.09;;;3.13;52.70
63556;BME280;49700;48.072;7.800;2023-02-28T18:30:04;100244.63;;;3.06;52.71
63556;BME280;49700;48.072;7.800;2023-02-28T18:32:30;100241.31;;;3.00;53.34
63556;BME280;49700;48.072;7.800;2023-02-28T18:34:56;100240.53;;;2.96;53.03
63556;BME280;49700;48.072;7.800;2023-02-28T18:37:22;100241.41;;;2.95;53.21
63556;BME280;49700;48.072;7.800;2023-02-28T18:39:47;100244.03;;;2.94;53.42
63556;BME280;49700;48.072;7.800;2023-02-28T18:42:13;100235.47;;;2.90;53.62
63556;BME280;49700;48.072;7.800;2023-02-28T18:44:39;100247.69;;;2.86;53.39
63556;BME280;49700;48.072;7.800;2023-02-28T18:47:07;100245.16;;;2.82;53.65
63556;BME280;49700;48.072;7.800;2023-02-28T18:49:33;100244.41;;;2.78;53.97
63556;BME280;49700;48.072;7.800;2023-02-28T18:52:00;100246.31;;;2.70;54.17
63556;BME280;49700;48.072;7.800;2023-02-28T18:54:26;100241.19;;;2.65;54.59
63556;BME280;49700;48.072;7.800;2023-02-28T18:56:51;100241.28;;;2.61;54.67
63556;BME280;49700;48.072;7.800;2023-02-28T18:59:18;100237.06;;;2.57;54.56
63556;BME280;49700;48.072;7.800;2023-02-28T19:01:43;100237.16;;;2.52;55.10
63556;BME280;49700;48.072;7.800;2023-02-28T19:04:13;100236.38;;;2.49;54.93
63556;BME280;49700;48.072;7.800;2023-02-28T19:06:39;100238.13;;;2.47;54.78
63556;BME280;49700;48.072;7.800;2023-02-28T19:09:06;100238.16;;;2.45;55.21
63556;BME280;49700;48.072;7.800;2023-02-28T19:11:33;100232.97;;;2.45;55.01
63556;BME280;49700;48.072;7.800;2023-02-28T19:13:59;100234.69;;;2.46;55.16
63556;BME280;49700;48.072;7.800;2023-02-28T19:16:25;100238.13;;;2.47;54.83
63556;BME280;49700;48.072;7.800;2023-02-28T19:18:52;100238.16;;;2.45;54.93
63556;BME280;49700;48.072;7.800;2023-02-28T19:21:20;100230.44;;;2.42;55.00
63556;BME280;49700;48.072;7.800;2023-02-28T19:23:46;100232.25;;;2.37;55.47
63556;BME280;49700;48.072;7.800;2023-02-28T19:26:18;100241.06;;;2.30;55.81
63556;BME280;49700;48.072;7.800;2023-02-28T19:28:44;100231.72;;;2.21;56.00
63556;BME280;49700;48.072;7.800;2023-02-28T19:31:11;100239.53;;;2.18;55.81
63556;BME280;49700;48.072;7.800;2023-02-28T19:33:38;100242.97;;;2.20;56.51
63556;BME280;49700;48.072;7.800;2023-02-28T19:36:03;100244.72;;;2.19;56.63
63556;BME280;49700;48.072;7.800;2023-02-28T19:38:29;100232.66;;;2.17;56.61
63556;BME280;49700;48.072;7.800;2023-02-28T19:41:01;100240.44;;;2.17;56.55
63556;BME280;49700;48.072;7.800;2023-02-28T19:43:30;100234.41;;;2.16;56.34
63556;BME280;49700;48.072;7.800;2023-02-28T19:45:56;100234.41;;;2.16;56.33
63556;BME280;49700;48.072;7.800;2023-02-28T19:48:22;100238.72;;;2.16;56.39
63556;BME280;49700;48.072;7.800;2023-02-28T19:51:03;100230.13;;;2.14;56.31
63556;BME280;49700;48.072;7.800;2023-02-28T19:53:30;100235.41;;;2.09;56.37
63556;BME280;49700;48.072;7.800;2023-02-28T19:55:56;100238.06;;;2.06;56.80
63556;BME280;49700;48.072;7.800;2023-02-28T19:58:22;100232.88;;;2.06;56.72
63556;BME280;49700;48.072;7.800;2023-02-28T20:00:50;100227.72;;;2.05;56.97
63556;BME280;49700;48.072;7.800;2023-02-28T20:03:16;100228.59;;;2.04;56.75
63556;BME280;49700;48.072;7.800;2023-02-28T20:05:43;100230.41;;;2.00;57.04
63556;BME280;49700;48.072;7.800;2023-02-28T20:08:09;100232.19;;;1.96;56.98
63556;BME280;49700;48.072;7.800;2023-02-28T20:10:35;100226.22;;;1.93;56.97
63556;BME280;49700;48.072;7.800;2023-02-28T20:13:00;100225.41;;;1.89;57.05
63556;BME280;49700;48.072;7.800;2023-02-28T20:15:26;100228.09;;;1.85;57.21
63556;BME280;49700;48.072;7.800;2023-02-28T20:17:52;100228.22;;;1.77;57.44
63556;BME280;49700;48.072;7.800;2023-02-28T20:20:17;100224.91;;;1.69;57.50
63556;BME280;49700;48.072;7.800;2023-02-28T20:22:44;100227.59;;;1.63;57.64
63556;BME280;49700;48.072;7.800;2023-02-28T20:25:10;100234.56;;;1.59;57.68
63556;BME280;49700;48.072;7.800;2023-02-28T20:27:36;100223.41;;;1.57;58.13
63556;BME280;49700;48.072;7.800;2023-02-28T20:30:02;100225.97;;;1.57;58.00
63556;BME280;49700;48.072;7.800;2023-02-28T20:32:28;100227.72;;;1.55;58.13
63556;BME280;49700;48.072;7.800;2023-02-28T20:34:53;100224.31;;;1.53;57.94
63556;BME280;49700;48.072;7.800;2023-02-28T20:37:19;100228.75;;;1.46;58.29
63556;BME280;49700;48.072;7.800;2023-02-28T20:39:45;100225.44;;;1.37;58.33
63556;BME280;49700;48.072;7.800;2023-02-28T20:42:10;100224.66;;;1.31;58.79
63556;BME280;49700;48.072;7.800;2023-02-28T20:44:36;100222.13;;;1.28;58.93
63556;BME280;49700;48.072;7.800;2023-02-28T20:47:01;100219.53;;;1.27;58.93
63556;BME280;49700;48.072;7.800;2023-02-28T20:49:27;100225.63;;;1.26;58.61
63556;BME280;49700;48.072;7.800;2023-02-28T20:51:53;100229.09;;;1.23;58.71
63556;BME280;49700;48.072;7.800;2023-02-28T20:54:18;100220.50;;;1.21;59.06
63556;BME280;49700;48.072;7.800;2023-02-28T20:56:44;100223.13;;;1.20;59.18
63556;BME280;49700;48.072;7.800;2023-02-28T20:59:10;100224.09;;;1.13;59.04
63556;BME280;49700;48.072;7.800;2023-02-28T21:01:36;100220.72;;;1.09;59.19
63556;BME280;49700;48.072;7.800;2023-02-28T21:04:04;100230.25;;;1.05;59.40
63556;BME280;49700;48.072;7.800;2023-02-28T21:06:32;100225.13;;;1.01;59.58
63556;BME280;49700;48.072;7.800;2023-02-28T21:08:58;100232.94;;;0.98;59.65
63556;BME280;49700;48.072;7.800;2023-02-28T21:11:28;100226.94;;;0.94;59.88
63556;BME280;49700;48.072;7.800;2023-02-28T21:13:54;100232.13;;;0.94;59.84
63556;BME280;49700;48.072;7.800;2023-02-28T21:16:22;100224.34;;;0.96;59.69
63556;BME280;49700;48.072;7.800;2023-02-28T21:18:48;100226.88;;;0.99;59.84
63556;BME280;49700;48.072;7.800;2023-02-28T21:21:23;100221.72;;;0.99;59.77
63556;BME280;49700;48.072;7.800;2023-02-28T21:23:49;100216.53;;;0.99;59.80
63556;BME280;49700;48.072;7.800;2023-02-28T21:26:18;100222.66;;;0.95;60.09
63556;BME280;49700;48.072;7.800;2023-02-28T21:28:51;100226.19;;;0.87;60.41
63556;BME280;49700;48.072;7.800;2023-02-28T21:31:17;100216.75;;;0.85;60.47
63556;BME280;49700;48.072;7.800;2023-02-28T21:33:44;100215.03;;;0.84;60.66
63556;BME280;49700;48.072;7.800;2023-02-28T21:36:15;100219.34;;;0.83;60.69
63556;BME280;49700;48.072;7.800;2023-02-28T21:38:41;100213.34;;;0.80;60.70
63556;BME280;49700;48.072;7.800;2023-02-28T21:41:18;100211.66;;;0.79;60.85
63556;BME280;49700;48.072;7.800;2023-02-28T21:43:45;100215.84;;;0.86;60.95
63556;BME280;49700;48.072;7.800;2023-02-28T21:46:13;100217.53;;;0.90;60.92
63556;BME280;49700;48.072;7.800;2023-02-28T21:48:41;100215.84;;;0.87;60.86
63556;BME280;49700;48.072;7.800;2023-02-28T21:51:10;100216.69;;;0.88;60.99
63556;BME280;49700;48.072;7.800;2023-02-28T21:53:36;100207.28;;;0.84;61.00
63556;BME280;49700;48.072;7.800;2023-02-28T21:56:11;100209.97;;;0.76;61.12
63556;BME280;49700;48.072;7.800;2023-02-28T21:58:36;100217.75;;;0.75;61.41
63556;BME280;49700;48.072;7.800;2023-02-28T22:01:06;100214.31;;;0.74;61.21
63556;BME280;49700;48.072;7.800;2023-02-28T22:03:33;100208.38;;;0.68;61.44
63556;BME280;49700;48.072;7.800;2023-02-28T22:05:58;100212.75;;;0.62;61.55
63556;BME280;49700;48.072;7.800;2023-02-28T22:08:24;100213.59;;;0.61;61.69
63556;BME280;49700;48.072;7.800;2023-02-28T22:10:49;100213.56;;;0.64;61.59
63556;BME280;49700;48.072;7.800;2023-02-28T22:13:14;100213.50;;;0.71;61.74
63556;BME280;49700;48.072;7.800;2023-02-28T22:15:40;100206.53;;;0.76;61.47
63556;BME280;49700;48.072;7.800;2023-02-28T22:18:05;100215.06;;;0.81;61.37
63556;BME280;49700;48.072;7.800;2023-02-28T22:20:31;100207.38;;;0.76;61.48
63556;BME280;49700;48.072;7.800;2023-02-28T22:22:56;100220.47;;;0.65;61.44
63556;BME280;49700;48.072;7.800;2023-02-28T22:25:22;100216.22;;;0.58;61.74
63556;BME280;49700;48.072;7.800;2023-02-28T22:27:47;100207.59;;;0.61;61.95
63556;BME280;49700;48.072;7.800;2023-02-28T22:30:13;100209.31;;;0.59;61.94
63556;BME280;49700;48.072;7.800;2023-02-28T22:32:38;100211.09;;;0.57;62.04
63556;BME280;49700;48.072;7.800;2023-02-28T22:35:05;100203.25;;;0.61;62.14